createdAt,value
2023-01-22T00:00:26.738Z,-1.40
2023-01-22T00:02:56.666Z,-1.40
2023-01-22T00:05:26.593Z,-1.40
2023-01-22T00:07:56.516Z,-1.40
2023-01-22T00:10:26.422Z,-1.30
2023-01-22T00:12:58.926Z,-1.30
2023-01-22T00:15:28.939Z,-1.40
2023-01-22T00:17:58.857Z,-1.30
2023-01-22T00:20:29.251Z,-1.30
2023-01-22T00:22:59.228Z,-1.30
2023-01-22T00:25:29.227Z,-1.30
2023-01-22T00:28:01.754Z,-1.30
2023-01-22T00:30:31.723Z,-1.40
2023-01-22T00:33:02.016Z,-1.50
2023-01-22T00:35:32.205Z,-1.50
2023-01-22T00:38:02.177Z,-1.60
2023-01-22T00:40:32.140Z,-1.50
2023-01-22T00:43:04.727Z,-1.60
2023-01-22T00:45:34.680Z,-1.60
2023-01-22T00:48:04.778Z,-1.60
2023-01-22T00:50:35.025Z,-1.60
2023-01-22T00:53:05.152Z,-1.60
2023-01-22T00:55:35.099Z,-1.60
2023-01-22T00:58:07.689Z,-1.50
2023-01-22T01:00:37.778Z,-1.40
2023-01-22T01:03:20.593Z,-1.40
2023-01-22T01:05:50.548Z,-1.40
2023-01-22T01:08:21.027Z,-1.40
2023-01-22T01:10:50.975Z,-1.30
2023-01-22T01:13:23.942Z,-1.30
2023-01-22T01:16:02.848Z,-1.40
2023-01-22T01:18:33.329Z,-1.40
2023-01-22T01:21:04.931Z,-1.50
2023-01-22T01:23:34.863Z,-1.50
2023-01-22T01:26:08.182Z,-1.60
2023-01-22T01:28:41.676Z,-1.60
2023-01-22T01:31:13.489Z,-1.60
2023-01-22T01:33:43.692Z,-1.50
2023-01-22T01:36:15.566Z,-1.60
2023-01-22T01:38:45.654Z,-1.60
2023-01-22T01:41:17.058Z,-1.50
2023-01-22T01:43:49.763Z,-1.50
2023-01-22T01:46:22.669Z,-1.40
2023-01-22T01:48:54.933Z,-1.40
2023-01-22T01:51:30.939Z,-1.50
2023-01-22T01:54:02.431Z,-1.50
2023-01-22T01:56:34.679Z,-1.50
2023-01-22T01:59:10.411Z,-1.50
2023-01-22T02:01:40.992Z,-1.50
2023-01-22T02:04:11.134Z,-1.50
2023-01-22T02:06:41.367Z,-1.40
2023-01-22T02:09:11.740Z,-1.40
2023-01-22T02:11:42.164Z,-1.50
2023-01-22T02:14:19.081Z,-1.50
2023-01-22T02:16:49.050Z,-1.50
2023-01-22T02:19:18.983Z,-1.50
2023-01-22T02:21:51.637Z,-1.50
2023-01-22T02:24:22.508Z,-1.40
2023-01-22T02:26:52.477Z,-1.50
2023-01-22T02:29:26.652Z,-1.50
2023-01-22T02:31:56.677Z,-1.50
2023-01-22T02:34:26.854Z,-1.50
2023-01-22T02:36:59.467Z,-1.50
2023-01-22T02:39:30.592Z,-1.40
2023-01-22T02:42:02.311Z,-1.40
2023-01-22T02:44:32.649Z,-1.40
2023-01-22T02:47:02.631Z,-1.50
2023-01-22T02:49:32.598Z,-1.50
2023-01-22T02:52:06.455Z,-1.70
2023-01-22T02:54:37.477Z,-1.70
2023-01-22T02:57:07.501Z,-1.50
2023-01-22T02:59:37.992Z,-1.50
2023-01-22T03:02:08.054Z,-1.50
2023-01-22T03:04:38.101Z,-1.50
2023-01-22T03:07:10.855Z,-1.50
2023-01-22T03:09:40.862Z,-1.50
2023-01-22T03:12:11.218Z,-1.50
2023-01-22T03:14:53.657Z,-1.40
2023-01-22T03:17:36.024Z,-1.40
2023-01-22T03:20:19.180Z,-1.40
2023-01-22T03:22:53.356Z,-1.40
2023-01-22T03:25:23.291Z,-1.40
2023-01-22T03:28:06.292Z,-1.50
2023-01-22T03:30:38.039Z,-1.50
2023-01-22T03:33:07.974Z,-1.50
2023-01-22T03:35:38.890Z,-1.50
2023-01-22T03:38:20.463Z,-1.50
2023-01-22T03:40:50.504Z,-1.50
2023-01-22T03:43:22.174Z,-1.50
2023-01-22T03:45:52.318Z,-1.50
2023-01-22T03:48:23.668Z,-1.50
2023-01-22T03:50:53.682Z,-1.50
2023-01-22T03:53:26.284Z,-1.50
2023-01-22T03:56:02.790Z,-1.50
2023-01-22T03:58:35.793Z,-1.50
2023-01-22T04:01:07.848Z,-1.50
2023-01-22T04:03:38.398Z,-1.50
2023-01-22T04:06:09.953Z,-1.40
2023-01-22T04:08:43.968Z,-1.40
2023-01-22T04:11:14.488Z,-1.40
2023-01-22T04:13:45.915Z,-1.40
2023-01-22T04:16:17.211Z,-1.40
2023-01-22T04:19:16.985Z,-1.40
2023-01-22T04:21:54.868Z,-1.40
2023-01-22T04:24:27.521Z,-1.40
2023-01-22T04:26:57.511Z,-1.50
2023-01-22T04:29:27.548Z,-1.50
2023-01-22T04:31:57.668Z,-1.50
2023-01-22T04:34:47.548Z,-1.50
2023-01-22T04:37:35.427Z,-1.60
2023-01-22T04:40:09.166Z,-1.60
2023-01-22T04:42:39.997Z,-1.70
2023-01-22T04:45:11.632Z,-1.70
2023-01-22T04:47:43.626Z,-1.60
2023-01-22T04:50:19.335Z,-1.60
2023-01-22T04:52:50.451Z,-1.70
2023-01-22T04:55:23.625Z,-1.70
2023-01-22T04:58:03.692Z,-1.70
2023-01-22T05:00:34.115Z,-1.70
2023-01-22T05:03:07.005Z,-1.70
2023-01-22T05:05:37.386Z,-1.70
2023-01-22T05:08:07.730Z,-1.60
2023-01-22T05:10:42.387Z,-1.60
2023-01-22T05:13:16.019Z,-1.60
2023-01-22T05:15:46.042Z,-1.60
2023-01-22T05:18:17.174Z,-1.60
2023-01-22T05:20:54.699Z,-1.60
2023-01-22T05:23:27.070Z,-1.60
2023-01-22T05:26:00.897Z,-1.60
2023-01-22T05:28:40.907Z,-1.60
2023-01-22T05:31:31.142Z,-1.60
2023-01-22T05:34:06.029Z,-1.50
2023-01-22T05:36:35.982Z,-1.60
2023-01-22T05:39:19.447Z,-1.50
2023-01-22T05:41:52.265Z,-1.50
2023-01-22T05:44:22.322Z,-1.50
2023-01-22T05:46:55.814Z,-1.50
2023-01-22T05:49:25.764Z,-1.60
2023-01-22T05:51:58.930Z,-1.60
2023-01-22T05:54:28.903Z,-1.50
2023-01-22T05:57:03.382Z,-1.50
2023-01-22T05:59:33.366Z,-1.50
2023-01-22T06:02:08.141Z,-1.50
2023-01-22T06:04:42.819Z,-1.60
2023-01-22T06:07:22.872Z,-1.50
2023-01-22T06:09:52.895Z,-1.50
2023-01-22T06:12:25.553Z,-1.60
2023-01-22T06:14:56.022Z,-1.60
2023-01-22T06:17:26.799Z,-1.60
2023-01-22T06:20:03.731Z,-1.60
2023-01-22T06:22:35.640Z,-1.60
2023-01-22T06:25:06.819Z,-1.80
2023-01-22T06:27:59.232Z,-1.90
2023-01-22T06:30:29.394Z,-1.90
2023-01-22T06:33:01.376Z,-2.00
2023-01-22T06:35:31.428Z,-2.00
2023-01-22T06:38:01.414Z,-2.10
2023-01-22T06:40:34.952Z,-2.00
2023-01-22T06:43:10.799Z,-2.00
2023-01-22T06:45:41.743Z,-2.00
2023-01-22T06:48:12.941Z,-2.00
2023-01-22T06:50:43.095Z,-1.90
2023-01-22T06:53:13.199Z,-2.00
2023-01-22T06:55:43.136Z,-2.00
2023-01-22T06:58:15.884Z,-2.00
2023-01-22T07:00:45.851Z,-2.00
2023-01-22T07:03:16.414Z,-2.00
2023-01-22T07:05:46.350Z,-2.10
2023-01-22T07:08:17.928Z,-2.00
2023-01-22T07:10:47.885Z,-2.00
2023-01-22T07:13:20.396Z,-1.90
2023-01-22T07:15:50.460Z,-1.80
2023-01-22T07:18:21.957Z,-1.80
2023-01-22T07:20:52.292Z,-1.80
2023-01-22T07:23:22.243Z,-1.70
2023-01-22T07:25:52.165Z,-1.70
2023-01-22T07:28:25.170Z,-1.70
2023-01-22T07:30:56.691Z,-1.70
2023-01-22T07:33:26.706Z,-1.70
2023-01-22T07:35:58.167Z,-1.70
2023-01-22T07:38:30.718Z,-1.50
2023-01-22T07:41:07.262Z,-1.40
2023-01-22T07:43:44.104Z,-1.40
2023-01-22T07:46:14.057Z,-1.30
2023-01-22T07:48:45.802Z,-1.30
2023-01-22T07:51:15.970Z,-1.30
2023-01-22T07:53:46.022Z,-1.30
2023-01-22T07:56:18.139Z,-1.40
2023-01-22T07:58:50.695Z,-1.40
2023-01-22T08:01:20.652Z,-1.40
2023-01-22T08:03:50.566Z,-1.40
2023-01-22T08:06:23.237Z,-1.30
2023-01-22T08:08:53.213Z,-1.30
2023-01-22T08:11:23.140Z,-1.30
2023-01-22T08:13:55.695Z,-1.30
2023-01-22T08:16:25.683Z,-1.30
2023-01-22T08:18:55.601Z,-1.20
2023-01-22T08:21:25.614Z,-1.20
2023-01-22T08:23:55.489Z,-1.10
2023-01-22T08:26:25.478Z,-1.20
2023-01-22T08:28:58.049Z,-1.10
2023-01-22T08:31:28.782Z,-1.10
2023-01-22T08:33:58.851Z,-1.10
2023-01-22T08:36:28.992Z,-1.00
2023-01-22T08:38:59.176Z,-1.00
2023-01-22T08:41:29.165Z,-1.10
2023-01-22T08:44:01.733Z,-1.10
2023-01-22T08:46:31.803Z,-1.20
2023-01-22T08:49:01.731Z,-1.20
2023-01-22T08:51:33.177Z,-1.20
2023-01-22T08:54:03.176Z,-1.20
2023-01-22T08:56:33.085Z,-1.20
2023-01-22T08:59:06.728Z,-1.10
2023-01-22T09:01:37.105Z,-1.10
2023-01-22T09:04:09.520Z,-1.10
2023-01-22T09:06:40.946Z,-1.00
2023-01-22T09:09:10.866Z,-1.00
2023-01-22T09:11:41.002Z,-1.00
2023-01-22T09:14:13.553Z,-0.90
2023-01-22T09:16:43.767Z,-0.80
2023-01-22T09:19:14.282Z,-0.90
2023-01-22T09:21:44.288Z,-0.90
2023-01-22T09:24:14.374Z,-0.80
2023-01-22T09:26:44.321Z,-0.80
2023-01-22T09:29:16.858Z,-0.70
2023-01-22T09:31:46.854Z,-0.80
2023-01-22T09:34:16.798Z,-0.70
2023-01-22T09:36:47.075Z,-0.70
2023-01-22T09:39:17.006Z,-0.70
2023-01-22T09:41:51.240Z,-0.60
2023-01-22T09:44:26.017Z,-0.60
2023-01-22T09:46:57.307Z,-0.70
2023-01-22T09:49:28.930Z,-0.70
2023-01-22T09:51:59.844Z,-0.70
2023-01-22T09:54:31.140Z,-0.90
2023-01-22T09:57:02.965Z,-0.90
2023-01-22T09:59:40.455Z,-0.80
2023-01-22T10:02:24.406Z,-0.90
2023-01-22T10:04:59.646Z,-0.80
2023-01-22T10:07:35.119Z,-0.90
2023-01-22T10:10:14.894Z,-0.90
2023-01-22T10:12:44.816Z,-0.90
2023-01-22T10:15:21.781Z,-0.90
2023-01-22T10:17:51.701Z,-0.90
2023-01-22T10:20:22.034Z,-0.90
2023-01-22T10:22:51.936Z,-0.80
2023-01-22T10:25:22.286Z,-0.80
2023-01-22T10:28:00.111Z,-0.80
2023-01-22T10:30:33.069Z,-0.70
2023-01-22T10:33:04.787Z,-0.80
2023-01-22T10:35:35.396Z,-0.70
2023-01-22T10:38:05.295Z,-0.70
2023-01-22T10:40:41.010Z,-0.80
2023-01-22T10:43:14.402Z,-0.80
2023-01-22T10:45:58.679Z,-0.80
2023-01-22T10:48:28.745Z,-0.80
2023-01-22T10:51:05.251Z,-0.70
2023-01-22T10:53:37.011Z,-0.70
2023-01-22T10:56:12.287Z,-0.70
2023-01-22T10:58:43.304Z,-0.70
2023-01-22T11:01:30.980Z,-0.70
2023-01-22T11:04:01.032Z,-0.60
2023-01-22T11:06:38.422Z,-0.50
2023-01-22T11:09:14.415Z,-0.50
2023-01-22T11:11:48.184Z,-0.60
2023-01-22T11:14:23.528Z,-0.50
2023-01-22T11:16:59.443Z,-0.40
2023-01-22T11:19:37.573Z,-0.30
2023-01-22T11:22:14.979Z,-0.20
2023-01-22T11:24:47.470Z,-0.10
2023-01-22T11:27:37.145Z,0.00
2023-01-22T11:30:35.835Z,0.00
2023-01-22T11:33:15.045Z,0.00
2023-01-22T11:35:52.654Z,0.10
2023-01-22T11:38:30.326Z,0.10
2023-01-22T11:41:11.453Z,0.10
2023-01-22T11:43:55.853Z,0.00
2023-01-22T11:46:43.773Z,0.00
2023-01-22T11:49:24.151Z,0.00
2023-01-22T11:52:02.910Z,0.10
2023-01-22T11:54:45.546Z,0.20
2023-01-22T11:57:21.605Z,0.10
2023-01-22T12:00:17.723Z,0.20
2023-01-22T12:03:17.774Z,0.10
2023-01-22T12:05:57.772Z,0.00
2023-01-22T12:08:37.420Z,-0.10
2023-01-22T12:11:24.633Z,-0.20
2023-01-22T12:14:24.174Z,-0.30
2023-01-22T12:16:59.650Z,-0.30
2023-01-22T12:19:51.414Z,-0.40
2023-01-22T12:22:31.882Z,-0.40
2023-01-22T12:25:06.967Z,-0.40
2023-01-22T12:27:40.027Z,-0.30
2023-01-22T12:30:22.759Z,-0.40
2023-01-22T12:32:56.196Z,-0.40
2023-01-22T12:35:26.959Z,-0.40
2023-01-22T12:38:04.822Z,-0.40
2023-01-22T12:41:07.836Z,-0.40
2023-01-22T12:43:41.172Z,-0.40
2023-01-22T12:46:16.450Z,-0.50
2023-01-22T12:48:52.102Z,-0.40
2023-01-22T12:51:30.019Z,-0.50
2023-01-22T12:54:11.542Z,-0.50
2023-01-22T12:56:41.546Z,-0.40
2023-01-22T12:59:32.409Z,-0.50
2023-01-22T13:02:03.402Z,-0.50
2023-01-22T13:04:34.247Z,-0.50
2023-01-22T13:07:08.674Z,-0.40
2023-01-22T13:09:41.405Z,-0.40
2023-01-22T13:12:12.487Z,-0.40
2023-01-22T13:14:47.400Z,-0.40
2023-01-22T13:17:22.468Z,-0.40
2023-01-22T13:19:53.500Z,-0.40
2023-01-22T13:22:27.749Z,-0.40
2023-01-22T13:25:01.531Z,-0.40
2023-01-22T13:27:34.510Z,-0.40
2023-01-22T13:30:11.912Z,-0.40
2023-01-22T13:32:41.944Z,-0.50
2023-01-22T13:35:15.301Z,-0.50
2023-01-22T13:37:47.020Z,-0.50
2023-01-22T13:40:26.665Z,-0.60
2023-01-22T13:42:57.088Z,-0.50
2023-01-22T13:45:29.357Z,-0.60
2023-01-22T13:48:03.620Z,-0.60
2023-01-22T13:50:34.490Z,-0.70
2023-01-22T13:53:05.319Z,-0.80
2023-01-22T13:55:38.127Z,-0.90
2023-01-22T13:58:08.201Z,-1.10
2023-01-22T14:00:39.686Z,-1.00
2023-01-22T14:03:22.379Z,-1.10
2023-01-22T14:05:52.357Z,-1.10
2023-01-22T14:08:22.336Z,-1.10
2023-01-22T14:11:02.662Z,-1.20
2023-01-22T14:13:41.862Z,-1.20
2023-01-22T14:16:12.276Z,-1.20
2023-01-22T14:18:42.549Z,-1.20
2023-01-22T14:21:12.634Z,-1.10
2023-01-22T14:23:42.881Z,-1.10
2023-01-22T14:26:15.559Z,-1.10
2023-01-22T14:28:45.500Z,-1.10
2023-01-22T14:31:15.561Z,-1.10
2023-01-22T14:33:45.524Z,-1.10
2023-01-22T14:36:15.507Z,-1.10
2023-01-22T14:38:45.481Z,-1.20
2023-01-22T14:41:18.071Z,-1.20
2023-01-22T14:43:48.000Z,-1.20
2023-01-22T14:46:18.030Z,-1.20
2023-01-22T14:48:48.004Z,-1.20
2023-01-22T14:51:18.022Z,-1.20
2023-01-22T14:53:48.051Z,-1.30
2023-01-22T14:56:20.642Z,-1.30
2023-01-22T14:58:51.034Z,-1.30
2023-01-22T15:01:22.286Z,-1.30
2023-01-22T15:03:52.467Z,-1.40
2023-01-22T15:06:22.491Z,-1.40
2023-01-22T15:08:52.435Z,-1.40
2023-01-22T15:11:24.998Z,-1.40
2023-01-22T15:13:55.768Z,-1.40
2023-01-22T15:16:26.092Z,-1.40
2023-01-22T15:18:57.535Z,-1.40
2023-01-22T15:21:27.727Z,-1.40
2023-01-22T15:23:57.634Z,-1.40
2023-01-22T15:26:32.726Z,-1.40
2023-01-22T15:29:02.681Z,-1.40
2023-01-22T15:31:32.822Z,-1.40
2023-01-22T15:34:04.227Z,-1.40
2023-01-22T15:36:36.183Z,-1.40
2023-01-22T15:39:06.412Z,-1.40
2023-01-22T15:41:40.072Z,-1.40
2023-01-22T15:44:10.492Z,-1.40
2023-01-22T15:46:42.218Z,-1.40
2023-01-22T15:49:13.454Z,-1.50
2023-01-22T15:51:44.210Z,-1.40
2023-01-22T15:54:17.937Z,-1.40
2023-01-22T15:56:50.813Z,-1.40
2023-01-22T15:59:21.113Z,-1.40
2023-01-22T16:01:52.564Z,-1.40
2023-01-22T16:04:22.532Z,-1.40
2023-01-22T16:06:52.727Z,-1.40
2023-01-22T16:09:22.689Z,-1.40
2023-01-22T16:11:57.229Z,-1.30
2023-01-22T16:14:28.428Z,-1.30
2023-01-22T16:16:58.442Z,-1.20
2023-01-22T16:19:28.382Z,-1.20
2023-01-22T16:21:58.347Z,-1.20
2023-01-22T16:24:28.268Z,-1.20
2023-01-22T16:27:00.821Z,-1.20
2023-01-22T16:29:30.819Z,-1.20
2023-01-22T16:32:00.754Z,-1.30
2023-01-22T16:34:30.869Z,-1.20
2023-01-22T16:37:01.019Z,-1.30
2023-01-22T16:39:34.089Z,-1.30
2023-01-22T16:42:07.684Z,-1.30
2023-01-22T16:44:37.864Z,-1.30
2023-01-22T16:47:07.860Z,-1.50
2023-01-22T16:49:37.920Z,-1.50
2023-01-22T16:52:21.922Z,-1.50
2023-01-22T16:54:53.179Z,-1.60
2023-01-22T16:57:25.965Z,-1.60
2023-01-22T16:59:55.932Z,-1.60
2023-01-22T17:02:25.893Z,-1.60
2023-01-22T17:04:57.765Z,-1.70
2023-01-22T17:07:33.980Z,-1.70
2023-01-22T17:10:04.641Z,-1.80
2023-01-22T17:12:37.672Z,-1.80
2023-01-22T17:15:08.791Z,-1.70
2023-01-22T17:17:39.188Z,-1.70
2023-01-22T17:20:10.473Z,-1.70
2023-01-22T17:22:40.581Z,-1.60
2023-01-22T17:25:11.474Z,-1.70
2023-01-22T17:27:44.028Z,-1.60
2023-01-22T17:30:15.673Z,-1.70
2023-01-22T17:32:47.615Z,-1.70
2023-01-22T17:35:18.216Z,-1.60
2023-01-22T17:37:48.640Z,-1.50
2023-01-22T17:40:18.882Z,-1.50
2023-01-22T17:42:51.779Z,-1.60
2023-01-22T17:45:21.966Z,-1.50
2023-01-22T17:47:52.101Z,-1.40
2023-01-22T17:50:22.467Z,-1.40
2023-01-22T17:52:52.804Z,-1.40
2023-01-22T17:55:22.780Z,-1.30
2023-01-22T17:57:57.120Z,-1.30
2023-01-22T18:00:27.315Z,-1.30
2023-01-22T18:02:57.420Z,-1.30
2023-01-22T18:05:29.256Z,-1.30
2023-01-22T18:07:59.193Z,-1.30
2023-01-22T18:10:30.655Z,-1.30
2023-01-22T18:13:03.368Z,-1.20
2023-01-22T18:15:33.310Z,-1.20
2023-01-22T18:18:03.637Z,-1.20
2023-01-22T18:20:33.629Z,-1.30
2023-01-22T18:23:03.539Z,-1.30
2023-01-22T18:25:33.441Z,-1.30
2023-01-22T18:28:05.961Z,-1.20
2023-01-22T18:30:36.923Z,-1.20
2023-01-22T18:33:09.045Z,-1.40
2023-01-22T18:41:40.829Z,-1.30
2023-01-22T18:44:14.833Z,-1.30
2023-01-22T18:46:48.161Z,-1.20
2023-01-22T18:49:20.544Z,-1.20
2023-01-22T18:51:50.743Z,-1.20
2023-01-22T18:54:21.025Z,-1.20
2023-01-22T18:56:50.986Z,-1.20
2023-01-22T18:59:23.962Z,-1.10
2023-01-22T19:01:54.097Z,-1.20
2023-01-22T19:04:25.340Z,-1.10
2023-01-22T19:06:57.349Z,-1.10
2023-01-22T19:09:27.537Z,-1.10
2023-01-22T19:12:00.734Z,-1.10
2023-01-22T19:14:33.270Z,-1.10
2023-01-22T19:17:03.957Z,-1.10
2023-01-22T19:19:33.924Z,-1.10
2023-01-22T19:22:04.314Z,-1.10
2023-01-22T19:24:34.411Z,-1.10
2023-01-22T19:27:04.598Z,-1.10
2023-01-22T19:29:37.321Z,-1.00
2023-01-22T19:32:11.465Z,-1.10
2023-01-22T19:34:42.063Z,-1.00
2023-01-22T19:37:12.781Z,-1.10
2023-01-22T19:39:42.744Z,-1.10
2023-01-22T19:42:12.734Z,-1.30
2023-01-22T19:44:45.755Z,-1.30
2023-01-22T19:47:15.772Z,-1.30
2023-01-22T19:49:46.042Z,-1.30
2023-01-22T19:52:16.705Z,-1.20
2023-01-22T19:54:48.445Z,-1.20
2023-01-22T19:57:18.450Z,-1.20
2023-01-22T19:59:55.309Z,-1.30
2023-01-22T20:02:25.360Z,-1.30
2023-01-22T20:04:57.771Z,-1.30
2023-01-22T20:07:30.897Z,-1.40
2023-01-22T20:10:01.240Z,-1.40
2023-01-22T20:12:31.323Z,-1.40
2023-01-22T20:15:03.882Z,-1.40
2023-01-22T20:17:33.818Z,-1.30
2023-01-22T20:20:05.308Z,-1.30
2023-01-22T20:22:35.613Z,-1.30
2023-01-22T20:25:05.610Z,-1.30
2023-01-22T20:27:36.353Z,-1.30
2023-01-22T20:30:10.643Z,-1.30
2023-01-22T20:32:40.785Z,-1.20
2023-01-22T20:35:15.513Z,-1.20
2023-01-22T20:37:45.643Z,-1.20
2023-01-22T20:40:16.315Z,-1.10
2023-01-22T20:42:46.366Z,-1.10
2023-01-22T20:49:19.591Z,-1.10
2023-01-22T20:51:52.288Z,-1.00
2023-01-22T20:54:22.745Z,-1.00
2023-01-22T20:56:52.826Z,-1.00
2023-01-22T20:59:24.188Z,-1.00
2023-01-22T21:01:54.533Z,-0.90
2023-01-22T21:04:24.564Z,-0.90
2023-01-22T21:06:57.125Z,-1.00
2023-01-22T21:09:28.136Z,-1.00
2023-01-22T21:11:58.222Z,-1.00
2023-01-22T21:14:28.200Z,-1.10
2023-01-22T21:16:58.633Z,-1.10
2023-01-22T21:19:29.850Z,-1.20
2023-01-22T21:22:04.038Z,-1.20
2023-01-22T21:24:34.228Z,-1.20
2023-01-22T21:27:04.160Z,-1.20
2023-01-22T21:29:34.216Z,-1.20
2023-01-22T21:32:04.261Z,-1.30
2023-01-22T21:34:36.356Z,-1.20
2023-01-22T21:37:08.930Z,-1.20
2023-01-22T21:39:47.312Z,-1.10
2023-01-22T21:42:29.609Z,-1.10
2023-01-22T21:45:13.574Z,-1.10
2023-01-22T21:47:44.699Z,-1.10
2023-01-22T21:50:14.661Z,-1.10
2023-01-22T21:52:49.023Z,-1.10
2023-01-22T21:55:19.101Z,-1.00
2023-01-22T21:57:49.125Z,-1.00
2023-01-22T22:00:20.126Z,-1.00
2023-01-22T22:02:52.104Z,-1.20
2023-01-22T22:05:22.115Z,-1.30
2023-01-22T22:07:55.078Z,-1.30
2023-01-22T22:10:26.439Z,-1.30
2023-01-22T22:12:56.496Z,-1.20
2023-01-22T22:15:26.419Z,-1.10
2023-01-22T22:17:56.407Z,-1.00
2023-01-22T22:20:26.361Z,-1.00
2023-01-22T22:22:59.541Z,-1.10
2023-01-22T22:25:29.601Z,-1.10
2023-01-22T22:27:59.867Z,-1.10
2023-01-22T22:30:29.908Z,-1.20
2023-01-22T22:33:00.128Z,-1.10
2023-01-22T22:35:30.133Z,-1.10
2023-01-22T22:38:02.719Z,-1.10
2023-01-22T22:40:33.681Z,-1.00
2023-01-22T22:43:03.656Z,-1.00
2023-01-22T22:45:33.605Z,-1.00
2023-01-22T22:48:03.605Z,-0.90
2023-01-22T22:50:34.581Z,-0.90
2023-01-22T22:53:07.114Z,-0.80
2023-01-22T22:55:37.064Z,-1.00
2023-01-22T22:58:09.398Z,-1.10
2023-01-22T23:00:41.370Z,-1.10
2023-01-22T23:03:11.420Z,-1.20
2023-01-22T23:05:41.966Z,-1.30
2023-01-22T23:08:14.470Z,-1.20
2023-01-22T23:10:44.440Z,-1.10
2023-01-22T23:13:14.400Z,-1.10
2023-01-22T23:15:44.346Z,-1.10
2023-01-22T23:18:14.283Z,-1.10
2023-01-22T23:20:44.188Z,-1.10
2023-01-22T23:23:16.691Z,-1.10
2023-01-22T23:25:46.611Z,-1.20
2023-01-22T23:28:16.512Z,-1.10
2023-01-22T23:30:46.518Z,-1.10
2023-01-22T23:33:16.544Z,-1.10
2023-01-22T23:35:47.234Z,-1.00
2023-01-22T23:38:21.900Z,-1.00
2023-01-22T23:40:59.431Z,-0.90
2023-01-22T23:43:29.861Z,-0.90
2023-01-22T23:45:59.947Z,-0.90
2023-01-22T23:48:30.742Z,-0.90
2023-01-22T23:51:01.361Z,-0.80
2023-01-22T23:53:34.000Z,-0.80
2023-01-22T23:56:04.822Z,-0.80
2023-01-22T23:58:35.438Z,-0.80
